Time;durP1;ratioP1;P1;durP2;ratioP2;P2;SDS_P1;SDS_P2;PMS_P1;PMS_P2;Temp;Humidity;BMP_temperature;BMP_pressure;BME280_temperature;BME280_humidity;BME280_pressure;Samples;Min_cycle;Max_cycle;Signal;HPM_P1;HPM_P2
2022/07/27 00:01:30;;;;;;;2.42;0.98;;;;;;;;;;5027375;28;20046;-77
2022/07/27 00:03:56;;;;;;;4.93;1.20;;;;;;;;;;5027493;28;20030;-75
2022/07/27 00:06:21;;;;;;;4.32;1.00;;;;;;;;;;5027102;28;20101;-76
2022/07/27 00:08:47;;;;;;;2.45;0.90;;;;;;;;;;5027146;28;20097;-76
2022/07/27 00:11:12;;;;;;;3.17;0.90;;;;;;;;;;5027244;28;20429;-76
2022/07/27 00:13:39;;;;;;;3.28;1.00;;;;;;;;;;5027488;28;20030;-78
2022/07/27 00:16:05;;;;;;;3.55;1.05;;;;;;;;;;5027370;28;20396;-79
2022/07/27 00:18:31;;;;;;;5.45;1.00;;;;;;;;;;5027325;28;20056;-78
2022/07/27 00:20:57;;;;;;;6.07;1.20;;;;;;;;;;5027343;28;20405;-78
2022/07/27 00:23:22;;;;;;;2.88;0.98;;;;;;;;;;5027118;28;20045;-78
2022/07/27 00:25:48;;;;;;;4.05;1.00;;;;;;;;;;5026925;28;20029;-78
2022/07/27 00:28:13;;;;;;;2.38;1.23;;;;;;;;;;5027678;28;20086;-79
2022/07/27 00:30:39;;;;;;;3.35;1.17;;;;;;;;;;5030609;28;20025;-77
2022/07/27 00:33:05;;;;;;;3.70;1.00;;;;;;;;;;5030667;28;20040;-78
2022/07/27 00:35:30;;;;;;;2.72;1.00;;;;;;;;;;5030481;28;20030;-79
2022/07/27 00:37:56;;;;;;;6.10;1.15;;;;;;;;;;5030509;28;20056;-77
2022/07/27 00:40:22;;;;;;;1.77;0.93;;;;;;;;;;5030613;28;20056;-78
2022/07/27 00:42:47;;;;;;;4.20;1.20;;;;;;;;;;5030435;28;20033;-77
2022/07/27 00:45:13;;;;;;;2.30;0.90;;;;;;;;;;5028874;28;20412;-77
2022/07/27 00:47:38;;;;;;;2.15;0.82;;;;;;;;;;5030088;28;20033;-78
2022/07/27 00:50:04;;;;;;;2.70;0.80;;;;;;;;;;5030450;28;20542;-78
2022/07/27 00:52:30;;;;;;;3.88;1.00;;;;;;;;;;5030416;28;20032;-78
2022/07/27 00:54:57;;;;;;;4.70;1.05;;;;;;;;;;5030552;28;20029;-79
2022/07/27 00:57:23;;;;;;;2.90;1.10;;;;;;;;;;5030538;28;20029;-79
2022/07/27 00:59:49;;;;;;;3.75;1.30;;;;;;;;;;5030412;28;20041;-78
2022/07/27 01:02:15;;;;;;;5.07;0.90;;;;;;;;;;5030003;28;20033;-78
2022/07/27 01:04:40;;;;;;;2.40;0.80;;;;;;;;;;5029962;28;20052;-78
2022/07/27 01:07:06;;;;;;;5.05;1.00;;;;;;;;;;5030078;28;20026;-78
2022/07/27 01:12:18;;;;;;;2.13;0.98;;;;;;;;;;5030378;28;20089;-78
2022/07/27 01:14:44;;;;;;;3.53;1.33;;;;;;;;;;5029929;28;20025;-78
2022/07/27 01:17:10;;;;;;;3.85;1.00;;;;;;;;;;5029988;28;20030;-76
2022/07/27 01:19:36;;;;;;;2.20;1.02;;;;;;;;;;5029978;28;20022;-78
2022/07/27 01:22:03;;;;;;;2.67;0.90;;;;;;;;;;5029620;28;20021;-77
2022/07/27 01:24:28;;;;;;;2.95;0.90;;;;;;;;;;5029914;28;20056;-78
2022/07/27 01:26:54;;;;;;;3.10;0.90;;;;;;;;;;5029729;28;20489;-78
2022/07/27 01:29:19;;;;;;;5.35;1.20;;;;;;;;;;5029850;28;20548;-79
2022/07/27 01:31:45;;;;;;;4.90;1.10;;;;;;;;;;5029806;28;20036;-78
2022/07/27 01:34:10;;;;;;;2.40;1.00;;;;;;;;;;5029558;28;20025;-77
2022/07/27 01:36:35;;;;;;;3.00;0.95;;;;;;;;;;5029413;28;20094;-77
2022/07/27 01:39:01;;;;;;;3.53;0.93;;;;;;;;;;5029512;28;20021;-77
2022/07/27 01:41:26;;;;;;;6.82;1.30;;;;;;;;;;5028794;28;20113;-77
2022/07/27 01:43:52;;;;;;;2.60;1.00;;;;;;;;;;5029708;28;20025;-78
2022/07/27 01:46:17;;;;;;;3.50;1.00;;;;;;;;;;5029515;28;20025;-75
2022/07/27 01:48:43;;;;;;;2.58;0.70;;;;;;;;;;5029547;28;20112;-77
2022/07/27 01:51:08;;;;;;;2.05;0.77;;;;;;;;;;5029549;28;20110;-77
2022/07/27 01:53:33;;;;;;;2.00;0.98;;;;;;;;;;5029229;28;20022;-78
2022/07/27 01:55:59;;;;;;;2.10;0.80;;;;;;;;;;5029179;28;20669;-76
2022/07/27 01:58:24;;;;;;;2.50;0.80;;;;;;;;;;5029403;28;20406;-78
2022/07/27 02:00:50;;;;;;;2.13;0.80;;;;;;;;;;5029134;28;20025;-77
2022/07/27 02:03:15;;;;;;;3.05;0.80;;;;;;;;;;5029420;28;20029;-77
2022/07/27 02:05:41;;;;;;;2.58;0.80;;;;;;;;;;5029157;28;20027;-78
2022/07/27 02:08:07;;;;;;;2.72;1.00;;;;;;;;;;5029107;28;20025;-78
2022/07/27 02:10:34;;;;;;;4.75;0.95;;;;;;;;;;5029265;28;20029;-78
2022/07/27 02:12:59;;;;;;;2.80;0.80;;;;;;;;;;5029192;28;20049;-78
2022/07/27 02:15:27;;;;;;;1.63;0.73;;;;;;;;;;5028985;28;20477;-77
2022/07/27 02:17:54;;;;;;;2.90;1.00;;;;;;;;;;5029172;28;20033;-77
2022/07/27 02:20:23;;;;;;;2.38;0.90;;;;;;;;;;5029208;28;20059;-77
2022/07/27 02:22:49;;;;;;;3.15;0.80;;;;;;;;;;5029072;28;20515;-77
2022/07/27 02:25:17;;;;;;;2.85;0.90;;;;;;;;;;5028969;28;20030;-77
2022/07/27 02:27:44;;;;;;;2.75;0.90;;;;;;;;;;5029167;28;20128;-77
2022/07/27 02:30:11;;;;;;;3.65;0.80;;;;;;;;;;5028780;28;20029;-77
2022/07/27 02:32:37;;;;;;;2.38;0.95;;;;;;;;;;5027550;28;20434;-77
2022/07/27 02:35:03;;;;;;;2.05;0.68;;;;;;;;;;5028898;28;20026;-77
2022/07/27 02:37:28;;;;;;;3.40;0.85;;;;;;;;;;5028233;28;20028;-77
2022/07/27 02:39:54;;;;;;;3.55;0.90;;;;;;;;;;5028809;28;20037;-78
2022/07/27 02:42:19;;;;;;;2.78;0.90;;;;;;;;;;5028729;28;20109;-80
2022/07/27 02:44:45;;;;;;;2.92;0.90;;;;;;;;;;5028591;28;20044;-79
2022/07/27 02:47:11;;;;;;;4.43;0.85;;;;;;;;;;5028372;28;20029;-79
2022/07/27 02:49:36;;;;;;;3.22;0.80;;;;;;;;;;5028418;28;20044;-78
2022/07/27 02:52:03;;;;;;;1.85;0.70;;;;;;;;;;5028132;28;20421;-78
2022/07/27 02:54:31;;;;;;;2.75;0.95;;;;;;;;;;5028426;28;20538;-78
2022/07/27 02:56:58;;;;;;;2.03;0.75;;;;;;;;;;5028372;28;20021;-80
2022/07/27 02:59:23;;;;;;;7.45;1.00;;;;;;;;;;5028546;28;20501;-78
2022/07/27 03:01:49;;;;;;;2.50;1.05;;;;;;;;;;5028147;28;20045;-79
2022/07/27 03:04:16;;;;;;;2.25;0.90;;;;;;;;;;5028175;28;20467;-79
2022/07/27 03:06:42;;;;;;;2.70;0.90;;;;;;;;;;5028361;28;20365;-79
2022/07/27 03:09:08;;;;;;;2.67;0.63;;;;;;;;;;5026868;28;20495;-79
2022/07/27 03:11:34;;;;;;;3.78;1.00;;;;;;;;;;5028166;28;20053;-79
2022/07/27 03:14:00;;;;;;;2.42;0.77;;;;;;;;;;5028302;28;20064;-78
2022/07/27 03:16:25;;;;;;;1.98;0.70;;;;;;;;;;5028013;28;20064;-78
2022/07/27 03:18:50;;;;;;;3.45;0.80;;;;;;;;;;5028102;28;20500;-77
2022/07/27 03:21:16;;;;;;;2.67;1.00;;;;;;;;;;5027979;28;20482;-78
2022/07/27 03:23:41;;;;;;;2.90;0.77;;;;;;;;;;5027915;28;20446;-78
2022/07/27 03:26:07;;;;;;;2.67;1.05;;;;;;;;;;5027882;28;20025;-79
2022/07/27 03:28:33;;;;;;;3.97;0.80;;;;;;;;;;5028205;28;20594;-79
2022/07/27 03:30:58;;;;;;;1.90;0.90;;;;;;;;;;5028122;28;20026;-79
2022/07/27 03:33:24;;;;;;;2.05;0.93;;;;;;;;;;5028191;28;20010;-78
2022/07/27 03:35:49;;;;;;;2.60;0.77;;;;;;;;;;5027691;28;20397;-79
2022/07/27 03:38:15;;;;;;;5.35;1.00;;;;;;;;;;5027708;28;20029;-79
2022/07/27 03:40:40;;;;;;;3.03;0.85;;;;;;;;;;5027566;28;20036;-79
2022/07/27 03:43:06;;;;;;;3.28;0.60;;;;;;;;;;5027698;28;20036;-79
2022/07/27 03:45:31;;;;;;;3.08;0.70;;;;;;;;;;5027623;28;20018;-77
2022/07/27 03:47:57;;;;;;;3.20;0.80;;;;;;;;;;5027619;28;20033;-77
2022/07/27 03:50:22;;;;;;;2.72;0.88;;;;;;;;;;5027801;28;20021;-77
2022/07/27 03:52:48;;;;;;;3.03;0.88;;;;;;;;;;5028027;28;20102;-78
2022/07/27 03:55:13;;;;;;;3.45;0.80;;;;;;;;;;5027452;28;20029;-79
2022/07/27 03:57:39;;;;;;;2.25;1.02;;;;;;;;;;5027457;28;20445;-79
2022/07/27 04:00:05;;;;;;;3.83;0.98;;;;;;;;;;5027617;28;20033;-80
2022/07/27 04:02:31;;;;;;;5.20;0.80;;;;;;;;;;5026973;28;20088;-78
2022/07/27 04:04:56;;;;;;;2.20;0.80;;;;;;;;;;5027279;28;20034;-79
2022/07/27 04:07:22;;;;;;;1.33;0.70;;;;;;;;;;5027784;28;20099;-78
2022/07/27 04:09:47;;;;;;;2.55;0.90;;;;;;;;;;5027286;28;20025;-78
2022/07/27 04:12:12;;;;;;;1.73;0.80;;;;;;;;;;5025926;28;20029;-79
2022/07/27 04:14:38;;;;;;;3.22;0.93;;;;;;;;;;5027681;28;20506;-78
2022/07/27 04:17:03;;;;;;;3.05;0.70;;;;;;;;;;5027358;28;20021;-79
2022/07/27 04:19:29;;;;;;;2.17;0.90;;;;;;;;;;5027673;28;20014;-78
2022/07/27 04:21:55;;;;;;;2.25;0.80;;;;;;;;;;5027258;28;20033;-79
2022/07/27 04:24:21;;;;;;;4.57;1.00;;;;;;;;;;5027331;28;20606;-77
2022/07/27 04:26:47;;;;;;;3.03;0.75;;;;;;;;;;5027087;28;20036;-77
2022/07/27 04:29:12;;;;;;;2.45;0.70;;;;;;;;;;5027178;28;20097;-77
2022/07/27 04:31:37;;;;;;;3.45;1.00;;;;;;;;;;5027224;28;20029;-78
2022/07/27 04:34:03;;;;;;;3.28;0.70;;;;;;;;;;5027043;28;20022;-76
2022/07/27 04:36:28;;;;;;;3.42;0.90;;;;;;;;;;5026795;28;20017;-76
2022/07/27 04:38:54;;;;;;;2.38;1.00;;;;;;;;;;5025686;28;20021;-75
2022/07/27 04:41:19;;;;;;;1.83;0.80;;;;;;;;;;5027117;28;20032;-76
2022/07/27 04:43:44;;;;;;;2.63;1.00;;;;;;;;;;5027061;28;20033;-76
2022/07/27 04:46:12;;;;;;;5.28;1.10;;;;;;;;;;5026786;28;20473;-78
2022/07/27 04:48:37;;;;;;;3.80;1.00;;;;;;;;;;5026868;28;20029;-76
2022/07/27 04:51:03;;;;;;;3.28;0.90;;;;;;;;;;5026644;28;20056;-77
2022/07/27 04:53:28;;;;;;;3.25;1.02;;;;;;;;;;5026741;28;20104;-76
2022/07/27 04:55:54;;;;;;;2.63;1.00;;;;;;;;;;5026645;28;20063;-76
2022/07/27 04:58:20;;;;;;;4.25;1.00;;;;;;;;;;5026803;28;20078;-75
2022/07/27 05:00:45;;;;;;;2.83;0.90;;;;;;;;;;5026956;28;20030;-75
2022/07/27 05:03:11;;;;;;;3.67;0.90;;;;;;;;;;5026817;28;20045;-74
2022/07/27 05:05:36;;;;;;;2.92;0.98;;;;;;;;;;5026624;28;20025;-74
2022/07/27 05:08:02;;;;;;;3.90;0.90;;;;;;;;;;5026263;28;20032;-76
2022/07/27 05:10:28;;;;;;;2.38;0.80;;;;;;;;;;5026645;28;20113;-74
2022/07/27 05:12:53;;;;;;;5.40;1.00;;;;;;;;;;5026691;28;20029;-75
2022/07/27 05:15:19;;;;;;;3.28;1.00;;;;;;;;;;5027639;28;20025;-75
2022/07/27 05:17:45;;;;;;;2.22;0.90;;;;;;;;;;5029990;28;20021;-75
2022/07/27 05:20:11;;;;;;;4.93;0.85;;;;;;;;;;5029977;28;20030;-75
2022/07/27 05:22:37;;;;;;;3.13;0.90;;;;;;;;;;5029677;28;20028;-74
2022/07/27 05:25:02;;;;;;;6.43;1.05;;;;;;;;;;5029907;28;20393;-75
2022/07/27 05:27:28;;;;;;;2.85;0.88;;;;;;;;;;5028419;28;20041;-75
2022/07/27 05:29:53;;;;;;;3.47;0.95;;;;;;;;;;5029837;28;20036;-76
2022/07/27 05:32:18;;;;;;;3.88;0.75;;;;;;;;;;5030021;28;20022;-77
2022/07/27 05:34:45;;;;;;;3.13;0.90;;;;;;;;;;5029875;28;20025;-77
2022/07/27 05:37:11;;;;;;;4.25;0.88;;;;;;;;;;5029509;28;20108;-78
2022/07/27 05:39:37;;;;;;;4.65;0.85;;;;;;;;;;5029749;28;20029;-76
2022/07/27 05:42:03;;;;;;;5.32;1.00;;;;;;;;;;5029610;28;20023;-77
2022/07/27 05:44:29;;;;;;;3.53;1.00;;;;;;;;;;5029723;28;20029;-81
2022/07/27 05:46:55;;;;;;;2.45;0.80;;;;;;;;;;5028203;28;20416;-79
2022/07/27 05:49:21;;;;;;;4.72;1.20;;;;;;;;;;5029570;28;20038;-75
2022/07/27 05:51:46;;;;;;;2.75;0.90;;;;;;;;;;5029458;28;20032;-77
2022/07/27 05:54:12;;;;;;;3.90;0.80;;;;;;;;;;5029499;28;20036;-79
2022/07/27 05:56:37;;;;;;;4.18;1.02;;;;;;;;;;5029335;28;20127;-77
2022/07/27 05:59:03;;;;;;;5.30;0.98;;;;;;;;;;5029251;28;20029;-75
2022/07/27 06:01:28;;;;;;;4.68;1.00;;;;;;;;;;5029126;28;20042;-77
2022/07/27 06:03:53;;;;;;;4.93;1.00;;;;;;;;;;5029439;28;20029;-76
2022/07/27 06:09:04;;;;;;;5.30;0.88;;;;;;;;;;5029293;28;20044;-77
2022/07/27 06:11:29;;;;;;;3.35;1.00;;;;;;;;;;5029399;28;20022;-77
2022/07/27 06:13:57;;;;;;;6.30;1.30;;;;;;;;;;5029000;28;20021;-76
2022/07/27 06:16:23;;;;;;;4.22;1.10;;;;;;;;;;5029012;28;20013;-74
2022/07/27 06:18:48;;;;;;;3.92;0.98;;;;;;;;;;5027496;28;20120;-76
2022/07/27 06:21:14;;;;;;;8.52;1.13;;;;;;;;;;5028864;28;20032;-76
2022/07/27 06:23:40;;;;;;;8.18;2.60;;;;;;;;;;5027679;28;20038;-76
2022/07/27 06:26:05;;;;;;;6.05;1.70;;;;;;;;;;5028228;28;20067;-76
2022/07/27 06:28:31;;;;;;;5.43;1.27;;;;;;;;;;5028725;28;20037;-75
2022/07/27 06:30:57;;;;;;;4.63;1.25;;;;;;;;;;5027552;28;20389;-76
2022/07/27 06:33:26;;;;;;;7.10;1.10;;;;;;;;;;5028716;28;20477;-75
2022/07/27 06:35:57;;;;;;;9.60;1.25;;;;;;;;;;5028729;28;20059;-77
2022/07/27 06:38:25;;;;;;;9.77;1.50;;;;;;;;;;5028531;28;20037;-79
2022/07/27 06:40:51;;;;;;;6.68;1.20;;;;;;;;;;5028828;28;20057;-74
2022/07/27 06:43:35;;;;;;;10.50;1.42;;;;;;;;;;5028779;28;20064;-77
2022/07/27 06:46:02;;;;;;;10.75;1.33;;;;;;;;;;5028649;28;20505;-77
2022/07/27 06:48:27;;;;;;;7.85;1.20;;;;;;;;;;5028236;28;20030;-76
2022/07/27 06:50:53;;;;;;;5.03;1.20;;;;;;;;;;5028462;28;20591;-77
2022/07/27 06:53:19;;;;;;;10.05;1.20;;;;;;;;;;5028371;28;20022;-76
2022/07/27 06:55:45;;;;;;;7.97;1.30;;;;;;;;;;5028298;28;20037;-76
2022/07/27 06:58:11;;;;;;;3.97;1.10;;;;;;;;;;5028300;28;20045;-77
2022/07/27 07:00:37;;;;;;;8.13;1.23;;;;;;;;;;5028217;28;20071;-76
2022/07/27 07:03:04;;;;;;;11.95;1.20;;;;;;;;;;5028260;28;20050;-77
2022/07/27 07:05:31;;;;;;;5.00;1.20;;;;;;;;;;5027121;28;20029;-76
2022/07/27 07:07:57;;;;;;;7.95;1.30;;;;;;;;;;5027907;28;20058;-76
2022/07/27 07:10:23;;;;;;;4.88;0.93;;;;;;;;;;5028315;28;20029;-76
2022/07/27 07:12:54;;;;;;;4.80;1.30;;;;;;;;;;5028151;28;20138;-75
2022/07/27 07:15:22;;;;;;;3.17;1.00;;;;;;;;;;5028241;28;20029;-76
2022/07/27 07:17:49;;;;;;;6.93;1.00;;;;;;;;;;5027928;28;20040;-76
2022/07/27 07:20:15;;;;;;;3.95;1.05;;;;;;;;;;5027871;28;20492;-76
2022/07/27 07:22:40;;;;;;;5.53;1.00;;;;;;;;;;5026572;28;20512;-75
2022/07/27 07:25:06;;;;;;;3.92;1.08;;;;;;;;;;5027733;28;20062;-77
2022/07/27 07:27:31;;;;;;;7.80;1.40;;;;;;;;;;5027635;28;20040;-76
2022/07/27 07:29:57;;;;;;;4.10;1.02;;;;;;;;;;5027837;28;20022;-77
2022/07/27 07:32:24;;;;;;;4.50;1.20;;;;;;;;;;5028080;28;20362;-77
2022/07/27 07:34:50;;;;;;;5.95;2.20;;;;;;;;;;5027871;28;20025;-74
2022/07/27 07:37:17;;;;;;;4.75;1.98;;;;;;;;;;5027647;28;20029;-76
2022/07/27 07:39:43;;;;;;;6.03;1.63;;;;;;;;;;5027809;28;20034;-76
2022/07/27 07:42:08;;;;;;;10.05;1.60;;;;;;;;;;5027752;28;20480;-76
2022/07/27 07:44:34;;;;;;;3.80;0.90;;;;;;;;;;5027771;28;20096;-74
2022/07/27 07:46:59;;;;;;;4.03;0.90;;;;;;;;;;5027489;28;20021;-73
2022/07/27 07:49:25;;;;;;;2.90;1.10;;;;;;;;;;5027608;28;20057;-76
2022/07/27 07:51:50;;;;;;;2.83;1.00;;;;;;;;;;5027460;28;20508;-76
2022/07/27 07:54:16;;;;;;;4.00;0.95;;;;;;;;;;5027678;28;20533;-76
2022/07/27 07:56:41;;;;;;;3.97;1.00;;;;;;;;;;5027410;28;20033;-76
2022/07/27 07:59:07;;;;;;;3.08;1.00;;;;;;;;;;5027302;28;20026;-76
2022/07/27 08:01:32;;;;;;;3.80;1.10;;;;;;;;;;5027197;28;20045;-76
2022/07/27 08:03:57;;;;;;;5.47;0.90;;;;;;;;;;5027183;28;20067;-76
2022/07/27 08:06:23;;;;;;;3.72;1.00;;;;;;;;;;5027330;28;20404;-76
2022/07/27 08:08:48;;;;;;;3.53;0.90;;;;;;;;;;5027257;28;20481;-75
2022/07/27 08:11:14;;;;;;;2.95;0.88;;;;;;;;;;5027252;28;20393;-77
2022/07/27 08:13:39;;;;;;;7.20;0.98;;;;;;;;;;5027430;28;20037;-78
2022/07/27 08:16:05;;;;;;;6.22;1.00;;;;;;;;;;5027436;28;20053;-78
2022/07/27 08:18:31;;;;;;;2.17;0.90;;;;;;;;;;5026975;28;20037;-76
2022/07/27 08:20:56;;;;;;;5.18;0.90;;;;;;;;;;5027032;28;20101;-79
2022/07/27 08:23:21;;;;;;;4.57;1.10;;;;;;;;;;5027111;28;20618;-79
2022/07/27 08:25:47;;;;;;;3.92;1.00;;;;;;;;;;5027194;28;20079;-80
2022/07/27 08:28:13;;;;;;;4.68;1.33;;;;;;;;;;5027056;28;20030;-79
2022/07/27 08:30:39;;;;;;;5.43;1.13;;;;;;;;;;5027150;28;20022;-79
2022/07/27 08:33:05;;;;;;;6.13;1.00;;;;;;;;;;5027116;28;20500;-80
2022/07/27 08:35:32;;;;;;;5.30;1.25;;;;;;;;;;5026926;28;20030;-79
2022/07/27 08:37:59;;;;;;;2.10;0.82;;;;;;;;;;5026501;28;20029;-80
2022/07/27 08:40:25;;;;;;;3.95;1.02;;;;;;;;;;5027012;28;20033;-79
2022/07/27 08:42:51;;;;;;;3.45;1.55;;;;;;;;;;5026889;28;20032;-80
2022/07/27 08:45:18;;;;;;;9.48;3.28;;;;;;;;;;5026998;28;20037;-79
2022/07/27 08:47:44;;;;;;;7.00;1.58;;;;;;;;;;5026699;28;20097;-76
2022/07/27 08:50:24;;;;;;;4.03;1.40;;;;;;;;;;5028677;28;20026;-79
2022/07/27 08:53:03;;;;;;;3.70;1.13;;;;;;;;;;5030099;28;20026;-78
2022/07/27 08:55:31;;;;;;;4.63;1.05;;;;;;;;;;5030287;28;20120;-79
2022/07/27 08:57:57;;;;;;;6.75;1.23;;;;;;;;;;5030159;28;20108;-78
2022/07/27 09:00:23;;;;;;;3.90;1.10;;;;;;;;;;5030332;28;20089;-78
2022/07/27 09:02:48;;;;;;;3.03;1.00;;;;;;;;;;5030105;28;20041;-78
2022/07/27 09:05:14;;;;;;;4.97;1.10;;;;;;;;;;5030235;28;20029;-78
2022/07/27 09:07:40;;;;;;;3.53;0.98;;;;;;;;;;5029866;28;20025;-78
2022/07/27 09:10:06;;;;;;;3.20;1.00;;;;;;;;;;5030037;28;20036;-78
2022/07/27 09:12:32;;;;;;;6.53;1.20;;;;;;;;;;5028628;28;20037;-79
2022/07/27 09:15:08;;;;;;;6.30;1.20;;;;;;;;;;5030067;28;20021;-79
2022/07/27 09:17:33;;;;;;;2.75;1.10;;;;;;;;;;5029929;28;20117;-78
2022/07/27 09:20:03;;;;;;;6.03;1.10;;;;;;;;;;5029925;28;20240;-78
2022/07/27 09:22:40;;;;;;;4.10;1.10;;;;;;;;;;5029915;28;20084;-78
2022/07/27 09:25:08;;;;;;;3.35;1.20;;;;;;;;;;5029815;28;20504;-79
2022/07/27 09:27:33;;;;;;;3.33;1.08;;;;;;;;;;5029659;28;20029;-77
2022/07/27 09:30:19;;;;;;;4.22;1.20;;;;;;;;;;5029609;28;20045;-78
2022/07/27 09:32:58;;;;;;;6.80;1.25;;;;;;;;;;5029631;28;20179;-80
2022/07/27 09:35:25;;;;;;;4.35;0.90;;;;;;;;;;5029812;28;20029;-78
2022/07/27 09:37:51;;;;;;;3.50;1.10;;;;;;;;;;5029504;28;20061;-77
2022/07/27 09:40:19;;;;;;;3.17;1.10;;;;;;;;;;5029679;28;20067;-78
2022/07/27 09:42:46;;;;;;;5.10;1.10;;;;;;;;;;5029523;28;20074;-78
2022/07/27 09:45:30;;;;;;;5.97;1.17;;;;;;;;;;5029352;28;20021;-79
2022/07/27 09:48:06;;;;;;;2.80;1.02;;;;;;;;;;5029266;28;20592;-79
2022/07/27 09:50:32;;;;;;;2.38;1.02;;;;;;;;;;5029488;28;20041;-78
2022/07/27 09:53:17;;;;;;;3.03;1.10;;;;;;;;;;5029435;28;20029;-78
2022/07/27 09:55:44;;;;;;;3.70;1.10;;;;;;;;;;5029480;28;20037;-78
2022/07/27 09:58:09;;;;;;;3.67;1.10;;;;;;;;;;5029213;28;20520;-76
2022/07/27 10:00:35;;;;;;;4.95;1.27;;;;;;;;;;5028583;28;20018;-78
2022/07/27 10:03:01;;;;;;;3.88;1.50;;;;;;;;;;5028704;28;20073;-79
2022/07/27 10:05:27;;;;;;;10.10;6.57;;;;;;;;;;5029175;28;20509;-78
2022/07/27 10:07:54;;;;;;;3.83;1.27;;;;;;;;;;5027634;28;20029;-78
2022/07/27 10:10:21;;;;;;;2.53;1.10;;;;;;;;;;5029304;28;20090;-79
2022/07/27 10:12:47;;;;;;;3.75;0.90;;;;;;;;;;5029083;28;20627;-78
2022/07/27 10:15:13;;;;;;;4.82;0.95;;;;;;;;;;5029224;28;20034;-78
2022/07/27 10:17:42;;;;;;;3.85;1.20;;;;;;;;;;5028999;28;20481;-78
2022/07/27 10:20:09;;;;;;;3.97;1.17;;;;;;;;;;5028883;28;20034;-78
2022/07/27 10:22:57;;;;;;;3.42;1.05;;;;;;;;;;5028922;28;20075;-79
2022/07/27 10:25:24;;;;;;;2.97;1.05;;;;;;;;;;5028928;28;20099;-78
2022/07/27 10:28:10;;;;;;;4.32;1.00;;;;;;;;;;5028988;28;20025;-78
2022/07/27 10:30:36;;;;;;;7.47;1.20;;;;;;;;;;5028949;28;20026;-79
2022/07/27 10:33:31;;;;;;;2.78;1.05;;;;;;;;;;5027525;28;20026;-78
2022/07/27 10:35:57;;;;;;;4.13;1.30;;;;;;;;;;5028214;28;20034;-78
2022/07/27 10:38:22;;;;;;;3.75;1.20;;;;;;;;;;5027222;28;20038;-79
2022/07/27 10:41:29;;;;;;;3.65;0.98;;;;;;;;;;5028623;28;20510;-79
2022/07/27 10:44:13;;;;;;;4.80;1.00;;;;;;;;;;5028697;28;20035;-79
2022/07/27 10:46:52;;;;;;;3.83;1.10;;;;;;;;;;5028595;28;20377;-78
2022/07/27 10:49:23;;;;;;;3.78;1.10;;;;;;;;;;5028400;28;20033;-79
2022/07/27 10:51:49;;;;;;;4.03;1.10;;;;;;;;;;5028497;28;20500;-79
2022/07/27 10:54:26;;;;;;;2.17;1.00;;;;;;;;;;5028915;28;20109;-80
2022/07/27 10:56:54;;;;;;;3.47;1.00;;;;;;;;;;5028526;28;20103;-80
2022/07/27 10:59:38;;;;;;;2.88;1.02;;;;;;;;;;5028325;28;20018;-76
2022/07/27 11:02:16;;;;;;;3.35;1.20;;;;;;;;;;5026815;28;20050;-76
2022/07/27 11:04:51;;;;;;;5.07;1.10;;;;;;;;;;5028318;28;20032;-77
2022/07/27 11:07:23;;;;;;;6.68;1.20;;;;;;;;;;5028457;28;20026;-78
2022/07/27 11:09:51;;;;;;;2.75;1.13;;;;;;;;;;5026776;28;20091;-78
2022/07/27 11:12:17;;;;;;;4.68;1.20;;;;;;;;;;5027712;28;20061;-76
2022/07/27 11:14:45;;;;;;;3.85;1.20;;;;;;;;;;5027998;28;20020;-76
2022/07/27 11:17:10;;;;;;;5.20;1.15;;;;;;;;;;5028400;28;20061;-78
2022/07/27 11:19:36;;;;;;;4.10;1.00;;;;;;;;;;5027961;28;20207;-77
2022/07/27 11:22:02;;;;;;;1.55;0.90;;;;;;;;;;5028041;28;20021;-76
2022/07/27 11:24:28;;;;;;;5.65;1.40;;;;;;;;;;5028354;28;20490;-75
2022/07/27 11:26:53;;;;;;;4.97;1.10;;;;;;;;;;5026718;28;20108;-76
2022/07/27 11:29:23;;;;;;;6.93;1.10;;;;;;;;;;5027657;28;20460;-77
2022/07/27 11:31:53;;;;;;;5.40;1.30;;;;;;;;;;5026680;28;20026;-76
2022/07/27 11:34:39;;;;;;;3.25;1.00;;;;;;;;;;5026445;28;20428;-76
2022/07/27 11:37:13;;;;;;;5.00;1.05;;;;;;;;;;5027639;28;20038;-76
2022/07/27 11:39:39;;;;;;;2.67;0.90;;;;;;;;;;5027644;28;20029;-75
2022/07/27 11:42:04;;;;;;;4.05;1.15;;;;;;;;;;5027840;28;20406;-75
2022/07/27 11:44:30;;;;;;;6.88;1.20;;;;;;;;;;5027865;28;20082;-75
2022/07/27 11:46:56;;;;;;;4.80;1.10;;;;;;;;;;5027754;28;20092;-77
2022/07/27 11:49:27;;;;;;;7.32;1.20;;;;;;;;;;5027268;28;20052;-76
2022/07/27 11:52:00;;;;;;;3.75;1.10;;;;;;;;;;5026213;28;20025;-75
2022/07/27 11:54:28;;;;;;;2.65;0.98;;;;;;;;;;5027649;28;20369;-76
2022/07/27 11:57:02;;;;;;;4.43;1.08;;;;;;;;;;5027533;28;20081;-76
2022/07/27 11:59:30;;;;;;;4.82;1.08;;;;;;;;;;5027505;28;20069;-76
2022/07/27 12:02:00;;;;;;;3.38;0.90;;;;;;;;;;5027272;28;20057;-76
2022/07/27 12:04:36;;;;;;;2.10;0.90;;;;;;;;;;5027445;28;20034;-76
2022/07/27 12:07:15;;;;;;;1.83;0.90;;;;;;;;;;5027104;28;20036;-75
2022/07/27 12:09:53;;;;;;;3.42;1.00;;;;;;;;;;5025852;28;20034;-75
2022/07/27 12:12:21;;;;;;;4.38;1.20;;;;;;;;;;5027475;28;20124;-76
2022/07/27 12:14:53;;;;;;;6.38;1.27;;;;;;;;;;5027393;28;20030;-75
2022/07/27 12:17:31;;;;;;;2.55;1.10;;;;;;;;;;5027391;28;20028;-77
2022/07/27 12:20:08;;;;;;;4.05;1.10;;;;;;;;;;5027112;28;20434;-80
2022/07/27 12:22:45;;;;;;;3.80;1.10;;;;;;;;;;5027077;28;20043;-79
2022/07/27 12:25:28;;;;;;;1.98;1.00;;;;;;;;;;5026000;28;20033;-79
2022/07/27 12:28:07;;;;;;;5.60;1.25;;;;;;;;;;5027131;28;20036;-79
2022/07/27 12:30:40;;;;;;;6.75;1.00;;;;;;;;;;5026840;28;20093;-77
2022/07/27 12:33:23;;;;;;;2.63;0.93;;;;;;;;;;5027279;28;20031;-78
2022/07/27 12:35:49;;;;;;;2.72;1.02;;;;;;;;;;5026900;28;20029;-76
2022/07/27 12:38:15;;;;;;;6.43;1.05;;;;;;;;;;5027067;28;20412;-79
2022/07/27 12:40:54;;;;;;;3.60;1.10;;;;;;;;;;5026777;28;20049;-78
2022/07/27 12:43:21;;;;;;;5.90;1.00;;;;;;;;;;5026723;28;20507;-78
2022/07/27 12:45:49;;;;;;;5.13;1.10;;;;;;;;;;5026846;28;20025;-78
2022/07/27 12:48:18;;;;;;;2.95;1.05;;;;;;;;;;5026851;27;20034;-79
2022/07/27 12:50:47;;;;;;;3.97;1.30;;;;;;;;;;5026754;28;20481;-79
2022/07/27 12:53:14;;;;;;;3.35;1.00;;;;;;;;;;5026812;28;20032;-78
2022/07/27 12:55:41;;;;;;;3.30;1.10;;;;;;;;;;5026981;28;20078;-79
2022/07/27 12:58:12;;;;;;;4.18;1.17;;;;;;;;;;5026720;28;20026;-77
2022/07/27 13:00:38;;;;;;;4.55;1.10;;;;;;;;;;5025130;28;20053;-79
2022/07/27 13:03:05;;;;;;;2.30;0.90;;;;;;;;;;5026535;28;20065;-77
2022/07/27 13:05:31;;;;;;;3.25;1.20;;;;;;;;;;5026907;28;20037;-78
2022/07/27 13:07:57;;;;;;;2.38;0.90;;;;;;;;;;5026768;28;20021;-78
2022/07/27 13:10:23;;;;;;;2.90;0.80;;;;;;;;;;5026600;28;20029;-78
2022/07/27 13:12:49;;;;;;;6.05;1.08;;;;;;;;;;5026516;28;20523;-78
2022/07/27 13:15:15;;;;;;;3.22;1.25;;;;;;;;;;5026390;28;20033;-77
2022/07/27 13:17:42;;;;;;;1.85;0.93;;;;;;;;;;5025269;28;20029;-78
2022/07/27 13:20:09;;;;;;;4.43;1.00;;;;;;;;;;5026381;28;20076;-78
2022/07/27 13:22:36;;;;;;;2.92;1.00;;;;;;;;;;5026667;28;20456;-77
2022/07/27 13:25:02;;;;;;;4.95;1.20;;;;;;;;;;5026565;28;20025;-77
2022/07/27 13:27:28;;;;;;;2.15;1.00;;;;;;;;;;5026583;28;20037;-78
2022/07/27 13:29:53;;;;;;;5.60;1.23;;;;;;;;;;5026154;28;20042;-78
2022/07/27 13:32:19;;;;;;;5.57;1.40;;;;;;;;;;5026382;28;20021;-78
2022/07/27 13:34:44;;;;;;;3.33;1.15;;;;;;;;;;5026245;28;20021;-79
2022/07/27 13:37:09;;;;;;;4.28;1.15;;;;;;;;;;5029576;28;20047;-79
2022/07/27 13:39:36;;;;;;;3.88;0.93;;;;;;;;;;5029546;28;20033;-77
2022/07/27 13:42:01;;;;;;;4.22;1.10;;;;;;;;;;5029677;28;20036;-78
2022/07/27 13:44:27;;;;;;;3.17;0.90;;;;;;;;;;5029681;28;20033;-79
2022/07/27 13:46:52;;;;;;;4.00;1.00;;;;;;;;;;5029532;28;20022;-78
2022/07/27 13:49:17;;;;;;;3.65;1.00;;;;;;;;;;5029095;28;20472;-79
2022/07/27 13:51:44;;;;;;;4.60;1.00;;;;;;;;;;5029171;28;20033;-78
2022/07/27 13:54:11;;;;;;;5.95;1.20;;;;;;;;;;5029310;28;20025;-79
2022/07/27 13:56:37;;;;;;;2.65;1.02;;;;;;;;;;5029292;28;20110;-77
2022/07/27 13:59:06;;;;;;;5.35;1.10;;;;;;;;;;5028110;28;20033;-78
2022/07/27 14:01:33;;;;;;;3.55;0.90;;;;;;;;;;5029213;28;20050;-78
2022/07/27 14:04:01;;;;;;;4.70;0.90;;;;;;;;;;5029314;28;20108;-76
2022/07/27 14:06:27;;;;;;;4.70;1.00;;;;;;;;;;5029140;28;20385;-77
2022/07/27 14:08:53;;;;;;;3.75;1.00;;;;;;;;;;5029109;28;20029;-78
2022/07/27 14:11:19;;;;;;;3.92;1.00;;;;;;;;;;5029021;28;20473;-78
2022/07/27 14:13:44;;;;;;;2.03;1.00;;;;;;;;;;5029082;28;20081;-77
2022/07/27 14:16:10;;;;;;;2.50;0.90;;;;;;;;;;5028024;28;20030;-78
2022/07/27 14:18:35;;;;;;;2.38;1.05;;;;;;;;;;5029195;28;20397;-78
2022/07/27 14:21:05;;;;;;;3.17;1.20;;;;;;;;;;5028885;28;20122;-78
2022/07/27 14:23:32;;;;;;;4.70;1.17;;;;;;;;;;5029121;28;20474;-78
2022/07/27 14:26:00;;;;;;;2.63;1.08;;;;;;;;;;5028801;28;20033;-77
2022/07/27 14:28:27;;;;;;;2.63;1.00;;;;;;;;;;5028712;28;20029;-78
2022/07/27 14:30:53;;;;;;;3.65;1.10;;;;;;;;;;5028718;28;20025;-79
2022/07/27 14:33:19;;;;;;;2.92;1.20;;;;;;;;;;5029033;28;20026;-78
2022/07/27 14:35:45;;;;;;;3.53;0.90;;;;;;;;;;5028871;28;20469;-78
2022/07/27 14:38:12;;;;;;;3.97;0.98;;;;;;;;;;5028797;28;20026;-78
2022/07/27 14:40:37;;;;;;;2.63;0.93;;;;;;;;;;5028449;28;20033;-78
2022/07/27 14:43:03;;;;;;;5.55;1.00;;;;;;;;;;5028532;28;20563;-79
2022/07/27 14:45:29;;;;;;;4.80;0.98;;;;;;;;;;5028600;28;20032;-78
2022/07/27 14:47:55;;;;;;;2.92;1.00;;;;;;;;;;5027971;28;20085;-78
2022/07/27 14:50:21;;;;;;;4.03;0.90;;;;;;;;;;5028261;28;20397;-78